createdAt,value
2023-02-20T00:01:34.894Z,6.30
2023-02-20T00:04:01.877Z,6.30
2023-02-20T00:06:28.938Z,6.30
2023-02-20T00:08:55.885Z,6.20
2023-02-20T00:11:22.881Z,6.20
2023-02-20T00:13:50.267Z,6.20
2023-02-20T00:16:17.473Z,6.20
2023-02-20T00:18:45.774Z,6.10
2023-02-20T00:21:13.171Z,6.10
2023-02-20T00:23:40.387Z,6.10
2023-02-20T00:26:13.153Z,6.00
2023-02-20T00:28:41.183Z,6.00
2023-02-20T00:31:13.140Z,5.90
2023-02-20T00:33:40.088Z,5.70
2023-02-20T00:36:07.814Z,5.60
2023-02-20T00:38:34.744Z,5.50
2023-02-20T00:41:01.616Z,5.40
2023-02-20T00:43:28.889Z,5.30
2023-02-20T00:45:55.923Z,5.30
2023-02-20T00:48:22.872Z,5.30
2023-02-20T00:50:49.721Z,5.30
2023-02-20T00:53:16.636Z,5.40
2023-02-20T00:55:43.762Z,5.40
2023-02-20T00:58:10.717Z,5.50
2023-02-20T01:00:37.689Z,5.60
2023-02-20T01:03:04.679Z,5.60
2023-02-20T01:05:31.673Z,5.70
2023-02-20T01:07:58.476Z,5.60
2023-02-20T01:10:25.871Z,5.70
2023-02-20T01:12:52.689Z,5.70
2023-02-20T01:15:19.728Z,5.60
2023-02-20T01:17:47.121Z,5.60
2023-02-20T01:20:13.991Z,5.60
2023-02-20T01:22:41.643Z,5.60
2023-02-20T01:25:08.646Z,5.50
2023-02-20T01:27:35.573Z,5.50
2023-02-20T01:30:02.871Z,5.50
2023-02-20T01:32:29.748Z,5.50
2023-02-20T01:34:56.833Z,5.50
2023-02-20T01:37:23.666Z,5.50
2023-02-20T01:39:51.180Z,5.40
2023-02-20T01:42:25.033Z,5.40
2023-02-20T01:44:52.107Z,5.40
2023-02-20T01:47:23.736Z,5.30
2023-02-20T01:50:03.436Z,5.30
2023-02-20T01:52:33.854Z,5.30
2023-02-20T01:55:24.280Z,5.20
2023-02-20T01:58:01.190Z,5.20
2023-02-20T02:00:28.836Z,5.20
2023-02-20T02:02:58.512Z,5.10
2023-02-20T02:05:26.222Z,5.10
2023-02-20T02:07:53.319Z,5.10
2023-02-20T02:10:31.430Z,5.10
2023-02-20T02:12:58.554Z,5.10
2023-02-20T02:15:26.086Z,5.00
2023-02-20T02:18:17.317Z,5.00
2023-02-20T02:21:07.735Z,5.00
2023-02-20T02:24:49.462Z,4.90
2023-02-20T02:27:59.572Z,4.80
2023-02-20T02:30:47.544Z,4.80
2023-02-20T02:33:32.789Z,4.80
2023-02-20T02:36:20.825Z,4.80
2023-02-20T02:39:42.758Z,4.80
2023-02-20T02:42:29.090Z,4.80
2023-02-20T02:45:23.591Z,4.80
2023-02-20T02:48:01.217Z,4.70
2023-02-20T02:50:36.683Z,4.70
2023-02-20T02:53:05.770Z,4.60
2023-02-20T02:55:36.285Z,4.70
2023-02-20T02:58:05.666Z,4.70
2023-02-20T03:01:03.518Z,4.70
2023-02-20T03:03:35.406Z,4.70
2023-02-20T03:06:29.186Z,4.80
2023-02-20T03:09:28.877Z,4.80
2023-02-20T03:11:58.680Z,4.80
2023-02-20T03:15:00.732Z,4.80
2023-02-20T03:17:43.379Z,4.80
2023-02-20T03:20:15.579Z,4.90
2023-02-20T03:22:53.074Z,4.80
2023-02-20T03:25:40.025Z,4.70
2023-02-20T03:28:12.180Z,4.70
2023-02-20T03:31:15.093Z,4.70
2023-02-20T03:34:19.695Z,4.70
2023-02-20T03:37:27.870Z,4.50
2023-02-20T03:40:18.349Z,4.50
2023-02-20T03:43:07.591Z,4.50
2023-02-20T03:45:38.200Z,4.50
2023-02-20T03:48:14.520Z,4.50
2023-02-20T03:51:00.662Z,4.50
2023-02-20T03:53:28.139Z,4.50
2023-02-20T03:56:00.148Z,4.40
2023-02-20T03:58:29.149Z,4.40
2023-02-20T04:00:58.738Z,4.40
2023-02-20T04:03:31.099Z,4.40
2023-02-20T04:06:00.744Z,4.40
2023-02-20T04:09:01.728Z,4.30
2023-02-20T04:11:39.806Z,4.40
2023-02-20T04:14:08.669Z,4.30
2023-02-20T04:16:51.759Z,4.30
2023-02-20T04:19:19.116Z,4.30
2023-02-20T04:21:55.599Z,4.30
2023-02-20T04:25:13.829Z,4.20
2023-02-20T04:27:41.037Z,4.20
2023-02-20T04:30:11.986Z,4.20
2023-02-20T04:32:39.007Z,4.20
2023-02-20T04:35:06.680Z,4.20
2023-02-20T04:37:33.589Z,4.30
2023-02-20T04:40:00.528Z,4.30
2023-02-20T04:42:27.341Z,4.20
2023-02-20T04:44:54.292Z,4.30
2023-02-20T04:47:21.145Z,4.30
2023-02-20T04:49:48.285Z,4.30
2023-02-20T04:52:15.159Z,4.20
2023-02-20T04:54:42.077Z,4.20
2023-02-20T04:57:08.948Z,4.20
2023-02-20T04:59:35.993Z,4.20
2023-02-20T05:02:03.092Z,4.20
2023-02-20T05:04:29.992Z,4.20
2023-02-20T05:06:57.730Z,4.20
2023-02-20T05:09:25.204Z,4.30
2023-02-20T05:11:52.663Z,4.30
2023-02-20T05:14:21.566Z,4.30
2023-02-20T05:16:51.304Z,4.30
2023-02-20T05:19:19.028Z,4.30
2023-02-20T05:22:05.414Z,4.30
2023-02-20T05:24:32.390Z,4.30
2023-02-20T05:27:00.101Z,4.20
2023-02-20T05:29:27.497Z,4.20
2023-02-20T05:31:54.554Z,4.20
2023-02-20T05:34:22.825Z,4.20
2023-02-20T05:36:49.919Z,4.20
2023-02-20T05:39:16.834Z,4.20
2023-02-20T05:41:43.736Z,4.30
2023-02-20T05:44:10.852Z,4.30
2023-02-20T05:46:42.475Z,4.30
2023-02-20T05:49:10.804Z,4.40
2023-02-20T05:51:38.076Z,4.30
2023-02-20T05:54:05.957Z,4.40
2023-02-20T05:56:33.148Z,4.30
2023-02-20T05:59:00.671Z,4.30
2023-02-20T06:01:30.961Z,4.20
2023-02-20T06:03:58.414Z,4.20
2023-02-20T06:06:32.269Z,4.10
2023-02-20T06:08:59.264Z,4.10
2023-02-20T06:11:26.368Z,4.10
2023-02-20T06:13:53.214Z,4.10
2023-02-20T06:16:28.792Z,4.10
2023-02-20T06:18:56.583Z,4.10
2023-02-20T06:21:26.947Z,4.10
2023-02-20T06:23:55.461Z,4.10
2023-02-20T06:26:23.430Z,4.10
2023-02-20T06:28:50.882Z,4.00
2023-02-20T06:31:28.414Z,4.00
2023-02-20T06:33:55.881Z,4.10
2023-02-20T06:36:32.106Z,4.10
2023-02-20T06:39:03.764Z,4.00
2023-02-20T06:41:33.817Z,4.10
2023-02-20T06:44:00.842Z,4.10
2023-02-20T06:46:28.058Z,4.00
2023-02-20T06:48:59.242Z,4.00
2023-02-20T06:51:33.710Z,4.00
2023-02-20T06:54:03.415Z,4.00
2023-02-20T06:56:34.399Z,4.00
2023-02-20T06:59:03.897Z,4.10
2023-02-20T07:01:39.620Z,4.10
2023-02-20T07:04:09.753Z,4.10
2023-02-20T07:06:37.754Z,4.10
2023-02-20T07:09:04.829Z,4.20
2023-02-20T07:11:31.667Z,4.20
2023-02-20T07:13:58.804Z,4.20
2023-02-20T07:16:26.053Z,4.20
2023-02-20T07:18:52.943Z,4.20
2023-02-20T07:21:19.934Z,4.20
2023-02-20T07:23:46.751Z,4.20
2023-02-20T07:26:27.079Z,4.20
2023-02-20T07:28:56.056Z,4.20
2023-02-20T07:31:23.069Z,4.30
2023-02-20T07:33:52.695Z,4.20
2023-02-20T07:36:20.133Z,4.40
2023-02-20T07:38:58.798Z,4.40
2023-02-20T07:41:32.301Z,4.40
2023-02-20T07:43:59.398Z,4.50
2023-02-20T07:46:26.383Z,4.50
2023-02-20T07:48:53.324Z,4.50
2023-02-20T07:51:20.492Z,4.60
2023-02-20T07:53:53.270Z,4.60
2023-02-20T07:56:21.623Z,4.70
2023-02-20T07:58:49.339Z,4.80
2023-02-20T08:01:17.462Z,4.80
2023-02-20T08:03:44.480Z,4.90
2023-02-20T08:06:11.848Z,5.00
2023-02-20T08:08:39.174Z,5.20
2023-02-20T08:11:09.918Z,5.40
2023-02-20T08:13:38.331Z,5.50
2023-02-20T08:16:05.905Z,5.70
2023-02-20T08:18:32.901Z,5.80
2023-02-20T08:20:59.747Z,6.20
2023-02-20T08:23:26.893Z,6.30
2023-02-20T08:28:22.092Z,6.80
2023-02-20T08:30:48.976Z,6.90
2023-02-20T08:33:16.051Z,7.00
2023-02-20T08:35:43.216Z,7.00
2023-02-20T08:38:28.011Z,7.30
2023-02-20T08:40:54.977Z,7.30
2023-02-20T08:43:22.790Z,7.30
2023-02-20T08:45:50.440Z,7.20
2023-02-20T08:48:17.595Z,7.20
2023-02-20T08:50:47.050Z,7.20
2023-02-20T08:53:15.204Z,7.20
2023-02-20T08:55:43.734Z,7.20
2023-02-20T08:58:10.841Z,7.20
2023-02-20T09:00:37.825Z,7.10
2023-02-20T09:03:08.807Z,7.00
2023-02-20T09:05:39.029Z,7.00
2023-02-20T09:08:06.461Z,7.00
2023-02-20T09:10:33.887Z,6.90
2023-02-20T09:13:01.541Z,6.90
2023-02-20T09:15:29.322Z,6.90
2023-02-20T09:17:56.444Z,6.80
2023-02-20T09:20:23.422Z,6.90
2023-02-20T09:22:51.131Z,6.90
2023-02-20T09:25:19.061Z,7.00
2023-02-20T09:27:45.980Z,7.00
2023-02-20T09:30:19.819Z,7.00
2023-02-20T09:32:48.284Z,7.20
2023-02-20T09:35:23.628Z,7.30
2023-02-20T09:37:50.751Z,7.30
2023-02-20T09:40:22.208Z,7.40
2023-02-20T09:43:07.579Z,7.60
2023-02-20T09:45:37.209Z,7.60
2023-02-20T09:48:34.732Z,7.60
2023-02-20T09:51:15.549Z,7.70
2023-02-20T09:54:28.598Z,7.90
2023-02-20T09:57:10.221Z,8.00
2023-02-20T09:59:52.568Z,8.10
2023-02-20T10:02:35.131Z,8.00
2023-02-20T10:05:26.387Z,8.00
2023-02-20T10:07:53.774Z,8.10
2023-02-20T10:10:39.025Z,8.10
2023-02-20T10:13:30.748Z,8.20
2023-02-20T10:16:18.886Z,8.10
2023-02-20T10:19:23.170Z,8.30
2023-02-20T10:22:41.445Z,8.30
2023-02-20T10:25:46.067Z,8.40
2023-02-20T10:28:18.436Z,8.50
2023-02-20T10:31:16.460Z,8.50
2023-02-20T10:33:50.497Z,8.60
2023-02-20T10:36:31.186Z,8.70
2023-02-20T10:39:07.688Z,8.70
2023-02-20T10:42:00.613Z,8.80
2023-02-20T10:44:56.280Z,8.80
2023-02-20T10:47:36.554Z,8.70
2023-02-20T10:50:08.344Z,8.80
2023-02-20T10:53:17.064Z,8.90
2023-02-20T10:56:01.903Z,8.90
2023-02-20T10:58:38.762Z,9.10
2023-02-20T11:01:14.394Z,9.20
2023-02-20T11:04:15.316Z,9.20
2023-02-20T11:07:02.659Z,9.30
2023-02-20T11:09:29.910Z,9.20
2023-02-20T11:11:56.832Z,9.40
2023-02-20T11:14:44.172Z,9.50
2023-02-20T11:17:16.120Z,9.70
2023-02-20T11:19:48.644Z,9.80
2023-02-20T11:22:18.134Z,9.70
2023-02-20T11:24:46.548Z,10.00
2023-02-20T11:27:21.593Z,10.00
2023-02-20T11:29:50.004Z,10.10
2023-02-20T11:32:41.745Z,10.20
2023-02-20T11:35:18.207Z,10.40
2023-02-20T11:37:55.523Z,10.60
2023-02-20T11:40:32.242Z,10.40
2023-02-20T11:43:14.329Z,10.40
2023-02-20T11:45:42.018Z,10.40
2023-02-20T11:48:21.279Z,10.40
2023-02-20T11:50:54.817Z,10.50
2023-02-20T11:53:23.842Z,10.60
2023-02-20T11:56:10.746Z,10.70
2023-02-20T11:58:39.356Z,10.80
2023-02-20T12:01:08.248Z,10.90
2023-02-20T12:03:36.697Z,10.80
2023-02-20T12:06:41.701Z,10.80
2023-02-20T12:09:17.416Z,10.90
2023-02-20T12:11:45.062Z,10.90
2023-02-20T12:14:15.618Z,10.90
2023-02-20T12:17:30.992Z,10.90
2023-02-20T12:20:21.289Z,11.00
2023-02-20T12:23:14.210Z,11.10
2023-02-20T12:36:44.481Z,11.90
2023-02-20T13:17:39.840Z,13.10
2023-02-20T13:20:17.208Z,13.10
2023-02-20T13:22:44.236Z,13.20
2023-02-20T13:25:47.604Z,13.30
2023-02-20T13:28:20.768Z,13.60
2023-02-20T13:31:21.473Z,13.60
2023-02-20T13:34:09.983Z,13.80
2023-02-20T13:36:39.766Z,13.70
2023-02-20T13:39:39.752Z,14.50
2023-02-20T13:42:34.004Z,16.60
2023-02-20T13:45:02.263Z,18.30
2023-02-20T13:47:34.669Z,18.40
2023-02-20T13:50:01.945Z,18.90
2023-02-20T13:52:43.040Z,19.10
2023-02-20T13:55:21.127Z,19.40
2023-02-20T13:57:49.325Z,19.20
2023-02-20T14:00:55.453Z,19.80
2023-02-20T14:03:32.158Z,20.60
2023-02-20T14:06:02.117Z,20.90
2023-02-20T14:08:29.335Z,20.50
2023-02-20T14:11:04.477Z,20.60
2023-02-20T14:13:40.040Z,20.90
2023-02-20T14:16:39.187Z,20.90
2023-02-20T14:19:22.968Z,20.90
2023-02-20T14:21:50.176Z,20.30
2023-02-20T14:24:27.436Z,20.30
2023-02-20T14:26:56.904Z,20.80
2023-02-20T14:29:25.592Z,20.70
2023-02-20T14:31:56.064Z,21.00
2023-02-20T14:34:28.435Z,20.30
2023-02-20T14:37:12.541Z,20.10
2023-02-20T14:40:10.227Z,20.00
2023-02-20T14:42:44.812Z,20.60
2023-02-20T14:45:24.838Z,20.70
2023-02-20T14:48:01.097Z,21.20
2023-02-20T14:50:33.795Z,21.50
2023-02-20T14:53:23.082Z,21.00
2023-02-20T14:55:51.056Z,21.10
2023-02-20T14:58:23.343Z,20.20
2023-02-20T15:00:50.524Z,20.20
2023-02-20T15:03:30.899Z,19.30
2023-02-20T15:06:06.349Z,19.30
2023-02-20T15:08:36.143Z,19.60
2023-02-20T15:11:12.824Z,19.90
2023-02-20T15:13:45.350Z,19.80
2023-02-20T15:16:24.276Z,20.10
2023-02-20T15:18:52.214Z,20.30
2023-02-20T15:21:58.978Z,20.60
2023-02-20T15:24:25.845Z,20.90
2023-02-20T15:26:53.393Z,20.50
2023-02-20T15:29:27.757Z,20.10
2023-02-20T15:32:01.806Z,19.90
2023-02-20T15:34:38.011Z,19.70
2023-02-20T15:37:38.184Z,19.40
2023-02-20T15:40:25.028Z,19.20
2023-02-20T15:42:57.150Z,19.20
2023-02-20T15:45:28.125Z,19.20
2023-02-20T15:47:56.166Z,19.30
2023-02-20T15:50:24.157Z,19.50
2023-02-20T15:52:51.481Z,19.60
2023-02-20T15:55:22.546Z,19.20
2023-02-20T15:57:56.625Z,19.30
2023-02-20T16:00:32.924Z,19.10
2023-02-20T16:03:01.839Z,19.40
2023-02-20T16:05:29.029Z,19.10
2023-02-20T16:07:56.203Z,18.90
2023-02-20T16:10:28.770Z,18.50
2023-02-20T16:12:58.814Z,18.20
2023-02-20T16:15:28.744Z,17.60
2023-02-20T16:17:57.072Z,17.00
2023-02-20T16:20:29.091Z,16.90
2023-02-20T16:22:56.606Z,16.70
2023-02-20T16:25:24.496Z,16.60
2023-02-20T16:27:56.780Z,16.40
2023-02-20T16:30:33.238Z,15.90
2023-02-20T16:33:03.094Z,14.90
2023-02-20T16:35:30.044Z,13.80
2023-02-20T16:37:57.145Z,13.10
2023-02-20T16:40:24.012Z,12.50
2023-02-20T16:42:50.931Z,12.20
2023-02-20T16:45:19.576Z,12.10
2023-02-20T16:47:55.472Z,11.90
2023-02-20T16:50:30.323Z,11.70
2023-02-20T16:52:59.247Z,11.60
2023-02-20T16:55:37.874Z,11.40
2023-02-20T16:58:07.302Z,11.40
2023-02-20T17:00:50.909Z,11.20
2023-02-20T17:03:24.455Z,11.20
2023-02-20T17:06:00.180Z,11.20
2023-02-20T17:08:27.717Z,11.10
2023-02-20T17:10:54.784Z,10.90
2023-02-20T17:13:22.028Z,10.90
2023-02-20T17:15:49.484Z,10.80
2023-02-20T17:18:16.496Z,10.70
2023-02-20T17:20:46.244Z,10.60
2023-02-20T17:23:13.162Z,10.60
2023-02-20T17:25:40.050Z,10.50
2023-02-20T17:28:07.046Z,10.40
2023-02-20T17:30:34.233Z,10.40
2023-02-20T17:33:01.143Z,10.30
2023-02-20T17:35:29.798Z,10.30
2023-02-20T17:37:56.820Z,10.30
2023-02-20T17:40:24.185Z,10.20
2023-02-20T17:42:51.209Z,10.20
2023-02-20T17:45:18.240Z,10.20
2023-02-20T17:47:45.173Z,10.20
2023-02-20T17:50:12.238Z,10.10
2023-02-20T17:52:39.357Z,10.00
2023-02-20T17:55:06.558Z,9.90
2023-02-20T17:57:33.462Z,10.10
2023-02-20T18:00:00.387Z,10.00
2023-02-20T18:02:27.573Z,9.90
2023-02-20T18:04:54.417Z,9.90
2023-02-20T18:07:21.826Z,9.80
2023-02-20T18:09:49.147Z,9.80
2023-02-20T18:12:16.249Z,9.80
2023-02-20T18:14:45.162Z,9.70
2023-02-20T18:17:12.617Z,9.60
2023-02-20T18:19:39.607Z,9.60
2023-02-20T18:22:06.564Z,9.60
2023-02-20T18:24:35.244Z,9.70
2023-02-20T18:27:02.263Z,9.60
2023-02-20T18:29:30.147Z,9.50
2023-02-20T18:31:58.397Z,9.40
2023-02-20T18:34:27.623Z,9.30
2023-02-20T18:36:55.555Z,9.30
2023-02-20T18:39:23.360Z,9.30
2023-02-20T18:41:56.164Z,9.30
2023-02-20T18:44:23.694Z,9.20
2023-02-20T18:46:51.374Z,9.20
2023-02-20T18:49:18.248Z,9.20
2023-02-20T18:51:45.461Z,9.20
2023-02-20T18:54:27.090Z,9.10
2023-02-20T18:56:55.350Z,9.10
2023-02-20T18:59:23.533Z,9.10
2023-02-20T19:01:50.556Z,9.00
2023-02-20T19:04:17.647Z,9.00
2023-02-20T19:06:45.310Z,9.00
2023-02-20T19:09:19.600Z,9.00
2023-02-20T19:11:52.198Z,8.90
2023-02-20T19:14:20.280Z,8.90
2023-02-20T19:16:59.804Z,8.90
2023-02-20T19:19:30.616Z,9.00
2023-02-20T19:21:58.482Z,8.90
2023-02-20T19:24:25.622Z,8.90
2023-02-20T19:26:52.960Z,8.80
2023-02-20T19:29:20.248Z,8.80
2023-02-20T19:31:47.622Z,8.80
2023-02-20T19:34:15.310Z,8.90
2023-02-20T19:36:43.054Z,8.80
2023-02-20T19:39:10.769Z,8.80
2023-02-20T19:41:39.438Z,8.80
2023-02-20T19:44:07.593Z,8.70
2023-02-20T19:46:35.366Z,8.70
2023-02-20T19:49:02.331Z,8.70
2023-02-20T19:51:29.279Z,8.80
2023-02-20T19:53:56.345Z,8.70
2023-02-20T19:56:23.512Z,8.80
2023-02-20T19:58:50.709Z,8.80
2023-02-20T20:01:19.605Z,8.80
2023-02-20T20:03:47.865Z,8.80
2023-02-20T20:06:17.638Z,8.90
2023-02-20T20:09:09.342Z,8.80
2023-02-20T20:11:33.195Z,8.70
2023-02-20T20:14:00.219Z,8.70
2023-02-20T20:16:27.342Z,8.70
2023-02-20T20:18:54.648Z,8.80
2023-02-20T20:21:22.160Z,8.70
2023-02-20T20:23:49.290Z,8.70
2023-02-20T20:26:16.290Z,8.70
2023-02-20T20:28:43.468Z,8.70
2023-02-20T20:31:10.549Z,8.70
2023-02-20T20:33:37.691Z,8.60
2023-02-20T20:36:05.248Z,8.60
2023-02-20T20:38:32.130Z,8.50
2023-02-20T20:43:26.302Z,8.40
2023-02-20T20:45:53.362Z,8.40
2023-02-20T20:48:20.391Z,8.40
2023-02-20T20:50:47.568Z,8.20
2023-02-20T20:53:17.340Z,8.20
2023-02-20T20:55:46.060Z,8.10
2023-02-20T20:58:13.389Z,8.10
2023-02-20T21:00:40.427Z,8.10
2023-02-20T21:03:11.563Z,8.20
2023-02-20T21:05:38.502Z,8.20
2023-02-20T21:08:08.342Z,8.20
2023-02-20T21:10:36.379Z,8.10
2023-02-20T21:13:03.349Z,8.20
2023-02-20T21:15:32.200Z,8.20
2023-02-20T21:20:29.461Z,8.10
2023-02-20T21:22:58.386Z,8.10
2023-02-20T21:25:25.794Z,8.10
2023-02-20T21:27:54.741Z,8.00
2023-02-20T21:30:24.647Z,8.00
2023-02-20T21:32:52.109Z,8.00
2023-02-20T21:35:21.372Z,8.00
2023-02-20T21:37:48.870Z,8.00
2023-02-20T21:40:17.612Z,8.00
2023-02-20T21:43:03.016Z,7.90
2023-02-20T21:45:30.095Z,8.00
2023-02-20T21:47:57.193Z,7.90
2023-02-20T21:50:24.464Z,7.90
2023-02-20T21:52:51.570Z,7.80
2023-02-20T21:55:19.608Z,7.70
2023-02-20T21:57:46.907Z,7.70
2023-02-20T22:00:15.835Z,7.60
2023-02-20T22:02:42.899Z,7.60
2023-02-20T22:05:11.149Z,7.60
2023-02-20T22:07:57.188Z,7.50
2023-02-20T22:10:43.796Z,7.50
2023-02-20T22:13:30.011Z,7.40
2023-02-20T22:16:15.399Z,7.30
2023-02-20T22:19:01.184Z,7.30
2023-02-20T22:21:47.405Z,7.20
2023-02-20T22:24:38.647Z,7.10
2023-02-20T22:27:27.601Z,7.00
2023-02-20T22:30:13.814Z,7.00
2023-02-20T22:32:59.199Z,6.80
2023-02-20T22:35:45.177Z,6.70
2023-02-20T22:38:30.320Z,6.50
2023-02-20T22:41:16.002Z,6.40
2023-02-20T22:44:01.638Z,6.20
2023-02-20T22:46:47.385Z,6.10
2023-02-20T22:49:32.821Z,6.00
2023-02-20T22:52:18.072Z,5.90
2023-02-20T22:55:05.876Z,5.90
2023-02-20T22:57:53.160Z,5.90
2023-02-20T23:00:39.324Z,5.90
2023-02-20T23:03:25.605Z,5.90
2023-02-20T23:06:17.863Z,5.90
2023-02-20T23:09:07.379Z,5.90
2023-02-20T23:11:55.016Z,5.90
2023-02-20T23:14:40.839Z,5.90
2023-02-20T23:17:37.121Z,6.00
2023-02-20T23:20:33.655Z,6.00
2023-02-20T23:23:20.100Z,6.00
2023-02-20T23:26:05.250Z,6.00
2023-02-20T23:28:51.303Z,5.90
2023-02-20T23:31:37.709Z,5.80
2023-02-20T23:34:23.409Z,5.80
2023-02-20T23:37:11.727Z,5.80
2023-02-20T23:39:56.901Z,5.80
2023-02-20T23:42:42.316Z,5.90
2023-02-20T23:45:29.192Z,6.00
2023-02-20T23:48:14.314Z,6.00
2023-02-20T23:50:59.941Z,5.90
2023-02-20T23:53:45.597Z,5.80
2023-02-20T23:56:31.671Z,5.80
2023-02-20T23:59:17.028Z,5.80
